Ao Nang, Thailand

5:00 AM ICT on July 30, 2014 (GMT +0700)
Ao Nang, Krabi (IKRABIAO1) Elev 177 ft | 8.05 °N, 98.84 °E | Change Station

Current weather conditions updated 9 seconds ago

Mostly Cloudy
Mostly Cloudy
79.3 °F
Feels Like 84 °F
N
0.0
Wind Variable Wind from WSW
Gusts 1.0 mph

Today is forecast to be Cooler than yesterday. Thunderstorms.

Today
High -- | Low -- °F
--% Chance of Precip.
Yesterday
High -- | Low -- °F
Precip. -- in
6:16 AM 6:45 PM
Waxing Crescent, 8% visible
Pressure 29.80 in
Visibility 5.0 miles
Clouds Few 1800 ft
Mostly Cloudy 30000 ft
Heat Index 84 °F
Dew Point 76 °F
Humidity 91%
Rainfall 0.00 in
Snow Depth Not available.
UV 0 out of 12
Pollen Not available.
Air Quality Not available.
Flu Activity Not available.
METAR VTSP 292130Z 25009KT 8000 FEW018 BKN300 28/23 Q1009 A2980 NOSIG

More Conditions Fewer Conditions

Pressure 29.80 in
Visibility 5.0 miles
Clouds Few 1800 ft
Mostly Cloudy 30000 ft
Heat Index 84 °F
Dew Point 76 °F
Humidity 91%
Rainfall 0.00 in
Snow Depth Not available.
UV 0 out of 12
Pollen Not available.
Air Quality Not available.
Flu Activity Not available.
METAR VTSP 292130Z 25009KT 8000 FEW018 BKN300 28/23 Q1009 A2980 NOSIG

More Conditions Fewer Conditions

10-Day Weather Forecast

Almanac

Astronomy

Jul. 30, 2014 Rise Set
Actual Time 6:16 AM ICT 6:45 PM ICT
Civil Twilight 5:54 AM ICT 7:07 PM ICT
Nautical Twilight 5:28 AM ICT 7:33 PM ICT
Astronomical Twilight 5:02 AM ICT 7:59 PM ICT
Moon 8:36 AM ICT (7/30) 9:00 PM ICT (7/30)
Length of Visible Light 13h 13m
Length of Day
12h 28m
Tomorrow will be 0m 20s shorter.
Waxing Crescent, 8% of the Moon is Illuminated
Jul 29
Waxing Crescent
Aug 3
First Quarter
Aug 10
Full
Aug 17
Last Quarter
Aug 25
New

Yesterday's Extremes

Country Highs Country Lows

Community

WunderPhotos

Upload Photos

1,738,878 photos uploaded!

Nearby

Snow Depth

Not available.

Earthquake Activity

City Distance Mag. Time & Date
No recent earthquake activity has been reported nearby.
Minimum magnitude displayed is 2.5.

Coastal Water Temperatures

Place Temperature
No Stations Reporting

Nearby Weather Stations

Station Location Temp. Heat Index Dew Point Humidity Wind Precip. Elev Updated Type
Ao Nang, Krabi, Ao Nang 79.3 °F 84 °F 76 °F 91% WSW  at  0.0 mph 0.00 in / hr 177 ft 5:00 AM ICT Rapid Fire

Show More Stations Show Fewer Stations